createdAt,value
2022-12-08T00:00:36.598Z,12.60
2022-12-08T00:01:36.594Z,12.40
2022-12-08T00:02:36.625Z,12.10
2022-12-08T00:03:36.606Z,11.70
2022-12-08T00:04:36.531Z,12.20
2022-12-08T00:05:36.552Z,11.20
2022-12-08T00:06:36.520Z,11.70
2022-12-08T00:07:36.604Z,12.20
2022-12-08T00:08:36.504Z,12.20
2022-12-08T00:09:38.994Z,12.30
2022-12-08T00:10:49.084Z,11.60
2022-12-08T00:11:38.482Z,12.40
2022-12-08T00:12:36.485Z,12.10
2022-12-08T00:13:36.473Z,12.40
2022-12-08T00:14:36.464Z,12.20
2022-12-08T00:15:36.487Z,12.20
2022-12-08T00:16:36.496Z,12.00
2022-12-08T00:17:36.443Z,12.00
2022-12-08T00:18:36.436Z,12.00
2022-12-08T00:19:36.423Z,12.60
2022-12-08T00:20:36.443Z,12.70
2022-12-08T00:21:36.407Z,12.20
2022-12-08T00:22:36.395Z,12.20
2022-12-08T00:23:36.397Z,12.20
2022-12-08T00:24:36.386Z,11.60
2022-12-08T00:25:36.411Z,11.40
2022-12-08T00:26:36.374Z,12.10
2022-12-08T00:27:36.371Z,11.90
2022-12-08T00:28:36.356Z,11.70
2022-12-08T00:29:36.353Z,12.40
2022-12-08T00:30:36.371Z,12.20
2022-12-08T00:31:36.438Z,13.30
2022-12-08T00:32:36.337Z,12.70
2022-12-08T00:33:36.321Z,14.50
2022-12-08T00:34:36.318Z,14.30
2022-12-08T00:35:41.517Z,15.90
2022-12-08T00:36:38.327Z,15.30
2022-12-08T00:37:36.298Z,15.40
2022-12-08T00:38:36.281Z,13.70
2022-12-08T00:39:36.288Z,13.30
2022-12-08T00:40:36.306Z,12.40
2022-12-08T00:41:36.256Z,12.60
2022-12-08T00:42:36.282Z,13.00
2022-12-08T00:43:36.251Z,12.40
2022-12-08T00:45:10.621Z,12.70
2022-12-08T00:45:36.305Z,13.00
2022-12-08T00:46:36.257Z,13.50
2022-12-08T00:47:36.215Z,12.70
2022-12-08T00:48:36.223Z,12.80
2022-12-08T00:49:36.198Z,14.00
2022-12-08T00:50:36.200Z,13.50
2022-12-08T00:51:36.208Z,13.10
2022-12-08T00:52:36.171Z,12.80
2022-12-08T00:53:36.166Z,13.30
2022-12-08T00:54:36.159Z,12.70
2022-12-08T00:55:36.158Z,12.40
2022-12-08T00:56:36.170Z,12.10
2022-12-08T00:57:36.129Z,11.80
2022-12-08T00:58:37.126Z,12.20
2022-12-08T00:59:36.117Z,12.20
2022-12-08T01:00:36.115Z,12.30
2022-12-08T01:01:36.216Z,11.40
2022-12-08T01:02:36.112Z,11.90
2022-12-08T01:03:36.160Z,12.00
2022-12-08T01:04:36.081Z,12.50
2022-12-08T01:05:36.075Z,12.20
2022-12-08T01:06:36.096Z,12.00
2022-12-08T01:07:36.117Z,11.90
2022-12-08T01:08:36.056Z,11.60
2022-12-08T01:09:36.047Z,11.80
2022-12-08T01:10:36.047Z,11.40
2022-12-08T01:11:36.072Z,11.60
2022-12-08T01:12:36.021Z,13.00
2022-12-08T01:13:36.036Z,10.30
2022-12-08T01:14:36.013Z,10.40
2022-12-08T01:15:35.999Z,10.10
2022-12-08T01:16:36.101Z,9.90
2022-12-08T01:17:35.988Z,9.50
2022-12-08T01:18:35.974Z,9.20
2022-12-08T01:19:35.961Z,9.50
2022-12-08T01:20:35.962Z,10.00
2022-12-08T01:21:35.986Z,9.20
2022-12-08T01:22:35.950Z,9.50
2022-12-08T01:23:35.946Z,9.90
2022-12-08T01:24:35.931Z,9.60
2022-12-08T01:25:35.919Z,10.30
2022-12-08T01:26:35.916Z,10.40
2022-12-08T01:27:35.935Z,9.80
2022-12-08T01:28:35.915Z,9.60
2022-12-08T01:29:35.895Z,9.90
2022-12-08T01:30:35.935Z,9.40
2022-12-08T01:31:35.883Z,9.50
2022-12-08T01:32:35.912Z,9.80
2022-12-08T01:33:35.857Z,9.40
2022-12-08T01:34:36.875Z,9.50
2022-12-08T01:35:35.846Z,9.60
2022-12-08T01:36:35.837Z,9.80
2022-12-08T01:37:35.854Z,9.10
2022-12-08T01:38:35.820Z,9.70
2022-12-08T01:39:35.823Z,9.50
2022-12-08T01:40:35.804Z,9.50
2022-12-08T01:41:35.802Z,10.90
2022-12-08T01:42:35.865Z,9.80
2022-12-08T01:43:35.797Z,9.70
2022-12-08T01:44:35.786Z,9.20
2022-12-08T01:45:35.773Z,9.80
2022-12-08T01:46:35.826Z,9.90
2022-12-08T01:47:35.826Z,9.60
2022-12-08T01:48:35.744Z,9.80
2022-12-08T01:49:35.736Z,10.00
2022-12-08T01:50:35.736Z,10.20
2022-12-08T01:51:35.744Z,9.50
2022-12-08T01:52:35.750Z,9.80
2022-12-08T01:53:35.701Z,9.00
2022-12-08T01:54:35.715Z,10.10
2022-12-08T01:55:35.687Z,9.50
2022-12-08T01:56:35.686Z,9.60
2022-12-08T01:57:35.700Z,10.00
2022-12-08T01:58:35.666Z,8.70
2022-12-08T01:59:35.698Z,8.80
2022-12-08T02:00:35.654Z,9.20
2022-12-08T02:01:35.709Z,8.60
2022-12-08T02:02:35.707Z,8.70
2022-12-08T02:03:35.644Z,8.60
2022-12-08T02:04:35.625Z,8.60
2022-12-08T02:05:35.614Z,8.70
2022-12-08T02:06:35.607Z,8.60
2022-12-08T02:07:35.651Z,9.20
2022-12-08T02:08:35.619Z,8.50
2022-12-08T02:09:35.572Z,9.00
2022-12-08T02:10:36.586Z,8.80
2022-12-08T02:11:35.569Z,8.30
2022-12-08T02:12:35.564Z,11.50
2022-12-08T02:13:35.586Z,10.10
2022-12-08T02:14:35.551Z,10.80
2022-12-08T02:15:35.649Z,12.10
2022-12-08T02:16:35.535Z,12.60
2022-12-08T02:17:35.535Z,12.10
2022-12-08T02:18:35.562Z,11.30
2022-12-08T02:19:35.549Z,11.50
2022-12-08T02:20:35.512Z,11.20
2022-12-08T02:21:35.501Z,11.20
2022-12-08T02:22:35.491Z,11.50
2022-12-08T02:23:35.513Z,11.30
2022-12-08T02:24:35.496Z,12.20
2022-12-08T02:25:35.472Z,15.30
2022-12-08T02:26:35.478Z,16.40
2022-12-08T02:27:35.462Z,14.70
2022-12-08T02:28:35.490Z,13.20
2022-12-08T02:29:35.443Z,12.60
2022-12-08T02:30:35.483Z,14.20
2022-12-08T02:31:35.435Z,13.60
2022-12-08T02:32:35.415Z,13.20
2022-12-08T02:33:35.437Z,13.60
2022-12-08T02:34:35.405Z,13.80
2022-12-08T02:35:35.400Z,14.50
2022-12-08T02:36:35.400Z,12.70
2022-12-08T02:37:35.385Z,12.90
2022-12-08T02:38:35.402Z,13.20
2022-12-08T02:39:35.360Z,13.10
2022-12-08T02:40:36.352Z,15.10
2022-12-08T02:41:35.344Z,13.40
2022-12-08T02:42:35.344Z,12.70
2022-12-08T02:43:35.358Z,14.30
2022-12-08T02:44:35.334Z,15.00
2022-12-08T02:45:35.333Z,13.60
2022-12-08T02:46:35.363Z,11.80
2022-12-08T02:47:36.301Z,12.20
2022-12-08T02:48:35.325Z,12.60
2022-12-08T02:49:35.290Z,12.60
2022-12-08T02:50:35.316Z,13.30
2022-12-08T02:51:35.282Z,14.60
2022-12-08T02:52:35.268Z,13.10
2022-12-08T02:53:35.296Z,13.00
2022-12-08T02:54:35.254Z,12.90
2022-12-08T02:55:35.248Z,13.40
2022-12-08T02:56:35.241Z,12.70
2022-12-08T02:57:35.234Z,13.10
2022-12-08T02:58:35.250Z,12.90
2022-12-08T02:59:35.216Z,14.00
2022-12-08T03:00:35.210Z,13.00
2022-12-08T03:01:35.231Z,12.90
2022-12-08T03:02:35.242Z,12.20
2022-12-08T03:03:35.211Z,12.50
2022-12-08T03:04:35.175Z,12.00
2022-12-08T03:05:35.178Z,12.40
2022-12-08T03:06:35.162Z,12.30
2022-12-08T03:07:35.156Z,12.10
2022-12-08T03:08:35.183Z,12.40
2022-12-08T03:09:35.143Z,12.10
2022-12-08T03:10:35.133Z,12.80
2022-12-08T03:11:35.124Z,12.80
2022-12-08T03:12:35.119Z,12.50
2022-12-08T03:13:35.141Z,12.70
2022-12-08T03:14:35.106Z,12.70
2022-12-08T03:15:35.166Z,12.10
2022-12-08T03:16:35.109Z,12.60
2022-12-08T03:17:35.079Z,12.60
2022-12-08T03:18:35.071Z,12.60
2022-12-08T03:19:35.091Z,13.50
2022-12-08T03:20:35.063Z,13.40
2022-12-08T03:21:35.051Z,13.00
2022-12-08T03:22:35.038Z,13.40
2022-12-08T03:23:35.033Z,13.60
2022-12-08T03:24:35.079Z,12.70
2022-12-08T03:25:35.021Z,13.20
2022-12-08T03:26:35.013Z,13.20
2022-12-08T03:27:35.024Z,14.00
2022-12-08T03:28:34.999Z,14.10
2022-12-08T03:29:35.020Z,14.10
2022-12-08T03:30:34.979Z,14.40
2022-12-08T03:31:35.037Z,13.90
2022-12-08T03:32:34.989Z,14.40
2022-12-08T03:33:34.980Z,14.70
2022-12-08T03:34:34.980Z,14.20
2022-12-08T03:35:34.947Z,14.90
2022-12-08T03:36:34.940Z,13.80
2022-12-08T03:37:34.929Z,14.40
2022-12-08T03:38:34.922Z,14.50
2022-12-08T03:39:34.941Z,14.50
2022-12-08T03:40:34.911Z,14.70
2022-12-08T03:41:34.896Z,15.00
2022-12-08T03:42:34.892Z,15.00
2022-12-08T03:43:34.885Z,15.70
2022-12-08T03:44:34.906Z,14.50
2022-12-08T03:45:34.864Z,14.10
2022-12-08T03:46:34.864Z,14.40
2022-12-08T03:47:34.859Z,14.60
2022-12-08T03:48:34.845Z,16.60
2022-12-08T03:49:34.873Z,15.70
2022-12-08T03:50:34.827Z,15.00
2022-12-08T03:51:34.834Z,14.70
2022-12-08T03:52:34.812Z,14.70
2022-12-08T03:53:34.801Z,15.90
2022-12-08T03:54:34.826Z,14.90
2022-12-08T03:55:34.789Z,14.60
2022-12-08T03:56:34.780Z,14.70
2022-12-08T03:57:34.779Z,17.20
2022-12-08T03:58:37.567Z,15.60
2022-12-08T03:59:35.789Z,15.50
2022-12-08T04:00:34.750Z,15.10
2022-12-08T04:01:34.797Z,14.80
2022-12-08T04:02:34.781Z,15.10
2022-12-08T04:03:34.730Z,15.30
2022-12-08T04:04:34.751Z,15.30
2022-12-08T04:05:34.732Z,15.20
2022-12-08T04:06:34.709Z,15.50
2022-12-08T04:07:34.701Z,16.00
2022-12-08T04:08:34.702Z,16.00
2022-12-08T04:09:34.715Z,16.40
2022-12-08T04:10:34.707Z,17.10
2022-12-08T04:11:34.665Z,15.80
2022-12-08T04:12:34.658Z,15.20
2022-12-08T04:13:34.655Z,14.90
2022-12-08T04:14:34.679Z,15.80
2022-12-08T04:15:34.647Z,15.50
2022-12-08T04:16:34.680Z,15.80
2022-12-08T04:17:34.628Z,14.80
2022-12-08T04:18:34.615Z,15.60
2022-12-08T04:19:34.606Z,15.60
2022-12-08T04:20:34.634Z,14.90
2022-12-08T04:21:34.609Z,16.20
2022-12-08T04:22:34.592Z,15.70
2022-12-08T04:23:34.585Z,16.20
2022-12-08T04:24:34.621Z,15.90
2022-12-08T04:25:34.569Z,16.10
2022-12-08T04:26:34.626Z,16.40
2022-12-08T04:27:34.550Z,16.00
2022-12-08T04:28:34.546Z,15.80
2022-12-08T04:29:34.538Z,16.00
2022-12-08T04:30:34.569Z,16.10
2022-12-08T04:31:34.576Z,15.50
2022-12-08T04:32:34.540Z,15.90
2022-12-08T04:33:34.511Z,16.30
2022-12-08T04:34:34.501Z,16.10
2022-12-08T04:35:34.526Z,16.50
2022-12-08T04:36:34.475Z,16.90
2022-12-08T04:37:34.475Z,15.80
2022-12-08T04:38:34.473Z,16.30
2022-12-08T04:39:34.458Z,16.40
2022-12-08T04:40:34.475Z,16.30
2022-12-08T04:41:34.450Z,16.10
2022-12-08T04:42:34.449Z,15.20
2022-12-08T04:43:34.436Z,15.20
2022-12-08T04:44:34.425Z,15.20
2022-12-08T04:45:34.443Z,14.90
2022-12-08T04:46:35.950Z,16.00
2022-12-08T04:47:34.405Z,15.80
2022-12-08T04:48:34.402Z,15.50
2022-12-08T04:49:34.383Z,15.20
2022-12-08T04:50:34.405Z,16.00
2022-12-08T04:51:34.372Z,15.70
2022-12-08T04:52:34.363Z,15.00
2022-12-08T04:53:34.359Z,15.50
2022-12-08T04:54:34.345Z,15.50
2022-12-08T04:55:34.360Z,17.40
2022-12-08T04:56:34.327Z,15.90
2022-12-08T04:57:34.325Z,16.70
2022-12-08T04:58:34.318Z,15.90
2022-12-08T04:59:34.307Z,16.80
2022-12-08T05:00:34.351Z,18.20
2022-12-08T05:01:34.481Z,17.70
2022-12-08T05:02:34.390Z,17.30
2022-12-08T05:03:34.274Z,16.70
2022-12-08T05:04:34.278Z,16.10
2022-12-08T05:05:34.306Z,19.20
2022-12-08T05:06:34.254Z,19.30
2022-12-08T05:07:35.247Z,18.50
2022-12-08T05:08:34.327Z,16.50
2022-12-08T05:09:34.234Z,17.00
2022-12-08T05:10:34.248Z,15.40
2022-12-08T05:11:35.169Z,14.40
2022-12-08T05:12:34.215Z,16.20
2022-12-08T05:13:34.216Z,15.40
2022-12-08T05:14:34.203Z,16.90
2022-12-08T05:15:34.219Z,15.30
2022-12-08T05:16:34.227Z,15.10
2022-12-08T05:17:34.177Z,14.20
2022-12-08T05:18:34.164Z,16.60
2022-12-08T05:19:34.163Z,17.00
2022-12-08T05:20:34.148Z,15.70
2022-12-08T05:21:34.171Z,15.70
2022-12-08T05:22:34.142Z,15.30
2022-12-08T05:23:34.134Z,15.20
2022-12-08T05:24:34.113Z,15.30
2022-12-08T05:25:34.120Z,14.40
2022-12-08T05:26:34.122Z,14.40
2022-12-08T05:27:34.093Z,15.50
2022-12-08T05:28:42.964Z,15.30
2022-12-08T05:29:36.081Z,15.10
2022-12-08T05:30:34.080Z,14.80
2022-12-08T05:31:34.134Z,14.80
2022-12-08T05:32:34.059Z,15.10
2022-12-08T05:33:34.047Z,15.10
2022-12-08T05:34:34.027Z,15.80
2022-12-08T05:35:35.029Z,14.70
2022-12-08T05:36:34.038Z,14.20
2022-12-08T05:37:35.015Z,14.00
2022-12-08T05:38:34.018Z,14.10
2022-12-08T05:39:34.005Z,13.90
2022-12-08T05:40:33.996Z,13.10
2022-12-08T05:41:34.015Z,13.00
2022-12-08T05:42:33.975Z,13.30
2022-12-08T05:43:33.976Z,14.20
2022-12-08T05:44:33.966Z,13.80
2022-12-08T05:45:34.010Z,13.90
2022-12-08T05:46:33.966Z,14.10
2022-12-08T05:47:36.127Z,15.00
2022-12-08T05:48:34.931Z,14.60
2022-12-08T05:49:33.922Z,13.90
2022-12-08T05:50:33.925Z,13.30
2022-12-08T05:51:33.932Z,12.10
2022-12-08T05:52:33.897Z,13.20
2022-12-08T05:53:33.886Z,14.20
2022-12-08T05:54:33.896Z,13.40
2022-12-08T05:55:33.876Z,12.00
2022-12-08T05:56:33.890Z,12.40
2022-12-08T05:57:33.866Z,12.80
2022-12-08T05:58:33.853Z,12.40
2022-12-08T05:59:33.842Z,12.60
2022-12-08T06:00:33.837Z,11.70
2022-12-08T06:01:33.931Z,12.70
2022-12-08T06:02:33.937Z,12.20
2022-12-08T06:03:33.884Z,12.60
2022-12-08T06:04:33.808Z,12.00
2022-12-08T06:05:33.807Z,12.00
2022-12-08T06:06:33.835Z,12.30
2022-12-08T06:07:33.788Z,12.50
2022-12-08T06:08:33.779Z,12.00
2022-12-08T06:09:33.773Z,11.70
2022-12-08T06:10:33.775Z,11.90
2022-12-08T06:11:33.792Z,12.30
2022-12-08T06:12:33.772Z,12.20
2022-12-08T06:13:33.746Z,12.20
2022-12-08T06:14:33.730Z,12.40
2022-12-08T06:15:33.725Z,12.10
2022-12-08T06:16:33.802Z,12.00
2022-12-08T06:17:33.708Z,11.80
2022-12-08T06:18:33.711Z,11.60
2022-12-08T06:19:33.713Z,11.30
2022-12-08T06:20:33.690Z,11.10
2022-12-08T06:21:33.710Z,11.60
2022-12-08T06:22:33.670Z,11.40
2022-12-08T06:23:33.664Z,11.80
2022-12-08T06:24:33.653Z,11.50
2022-12-08T06:25:33.654Z,12.00
2022-12-08T06:26:33.643Z,11.90
2022-12-08T06:27:33.675Z,11.60
2022-12-08T06:28:33.629Z,11.10
2022-12-08T06:29:33.615Z,12.00
2022-12-08T06:30:33.613Z,11.50
2022-12-08T06:31:33.643Z,11.30
2022-12-08T06:32:33.676Z,10.90
2022-12-08T06:33:33.589Z,11.20
2022-12-08T06:34:33.588Z,11.10
2022-12-08T06:35:33.577Z,11.70
2022-12-08T06:36:33.563Z,11.50
2022-12-08T06:37:33.592Z,12.10
2022-12-08T06:38:33.552Z,15.60
2022-12-08T06:39:33.552Z,15.80
2022-12-08T06:40:33.537Z,18.10
2022-12-08T06:41:33.537Z,18.30
2022-12-08T06:42:33.547Z,27.30
2022-12-08T06:43:33.509Z,23.50
2022-12-08T06:44:33.506Z,14.20
2022-12-08T06:46:07.818Z,14.20
2022-12-08T06:46:33.545Z,23.20
2022-12-08T06:47:33.509Z,36.70
2022-12-08T06:48:33.495Z,13.90
2022-12-08T06:49:33.467Z,21.30
2022-12-08T06:50:33.454Z,20.20
2022-12-08T06:51:33.445Z,31.40
2022-12-08T06:52:34.906Z,18.30
2022-12-08T06:53:33.440Z,11.30
2022-12-08T06:54:33.423Z,39.90
2022-12-08T06:56:35.410Z,14.40
2022-12-08T06:57:33.433Z,12.20
2022-12-08T06:58:33.396Z,9.70
2022-12-08T06:59:33.385Z,9.20
2022-12-08T07:00:33.379Z,9.40
2022-12-08T07:01:33.429Z,10.80
2022-12-08T07:02:33.408Z,11.90
2022-12-08T07:03:33.354Z,11.40
2022-12-08T07:04:33.347Z,10.60
2022-12-08T07:05:33.352Z,11.00
2022-12-08T07:06:33.328Z,11.40
2022-12-08T07:07:33.323Z,10.20
2022-12-08T07:08:33.405Z,9.00
2022-12-08T07:09:33.308Z,8.70
2022-12-08T07:10:33.303Z,8.80
2022-12-08T07:11:33.296Z,9.20
2022-12-08T07:12:33.285Z,9.30
2022-12-08T07:13:33.314Z,9.20
2022-12-08T07:14:33.269Z,9.30
2022-12-08T07:15:33.262Z,9.90
2022-12-08T07:16:33.319Z,11.30
2022-12-08T07:17:33.247Z,10.90
2022-12-08T07:18:33.266Z,11.00
2022-12-08T07:19:33.235Z,10.80
2022-12-08T07:20:33.224Z,9.70
2022-12-08T07:21:33.224Z,10.20
2022-12-08T07:22:33.216Z,10.80
2022-12-08T07:23:33.327Z,10.70
2022-12-08T07:24:33.196Z,11.20
2022-12-08T07:25:33.180Z,14.30
2022-12-08T07:26:34.181Z,30.20
2022-12-08T07:27:33.174Z,50.90
2022-12-08T07:28:33.199Z,49.70
2022-12-08T07:29:33.206Z,25.30
2022-12-08T07:30:33.198Z,15.00
2022-12-08T07:31:33.144Z,13.00
2022-12-08T07:32:33.136Z,14.00
2022-12-08T07:33:33.152Z,13.70
2022-12-08T07:34:33.125Z,12.60
2022-12-08T07:35:35.036Z,13.20
2022-12-08T07:36:34.102Z,16.20
2022-12-08T07:37:33.095Z,14.20
2022-12-08T07:38:33.118Z,14.90
2022-12-08T07:39:33.084Z,14.00
2022-12-08T07:40:33.077Z,13.80
2022-12-08T07:41:33.065Z,14.30
2022-12-08T07:42:33.056Z,17.80
2022-12-08T07:43:33.074Z,13.60
2022-12-08T07:44:33.043Z,14.80
2022-12-08T07:45:33.028Z,10.90
2022-12-08T07:46:33.056Z,12.70
2022-12-08T07:47:33.018Z,12.20
2022-12-08T07:48:33.105Z,11.00
2022-12-08T07:49:33.020Z,11.30
2022-12-08T07:50:33.010Z,10.40
2022-12-08T07:51:33.015Z,11.30
2022-12-08T07:52:32.979Z,12.10
2022-12-08T07:53:33.018Z,12.60
2022-12-08T07:54:33.120Z,12.40
2022-12-08T07:55:32.969Z,12.90
2022-12-08T07:56:32.955Z,12.20
2022-12-08T07:57:32.944Z,11.80
2022-12-08T07:58:32.966Z,11.50
2022-12-08T07:59:32.930Z,11.80
2022-12-08T08:00:32.940Z,10.70
2022-12-08T08:01:33.094Z,10.70
2022-12-08T08:02:33.007Z,13.00
2022-12-08T08:03:32.923Z,10.90
2022-12-08T08:04:32.948Z,12.40
2022-12-08T08:05:32.881Z,9.10
2022-12-08T08:06:32.874Z,9.50
2022-12-08T08:07:32.881Z,9.30
2022-12-08T08:08:32.953Z,9.80
2022-12-08T08:09:32.853Z,9.70
2022-12-08T08:10:32.850Z,9.90
2022-12-08T08:11:32.842Z,10.10
2022-12-08T08:12:33.309Z,10.00
2022-12-08T08:13:32.881Z,11.30
2022-12-08T08:14:32.816Z,10.40
2022-12-08T08:15:32.997Z,11.00
2022-12-08T08:16:38.101Z,11.80
2022-12-08T08:17:35.015Z,11.90
2022-12-08T08:18:32.779Z,12.00
2022-12-08T08:19:32.807Z,11.70
2022-12-08T08:20:32.766Z,11.40
2022-12-08T08:21:48.172Z,12.00
2022-12-08T08:22:34.760Z,12.60
2022-12-08T08:23:32.749Z,11.60
2022-12-08T08:24:32.776Z,10.10
2022-12-08T08:25:32.731Z,10.80
2022-12-08T08:26:32.732Z,11.80
2022-12-08T08:27:32.753Z,12.10
2022-12-08T08:28:32.746Z,12.50
2022-12-08T08:29:32.729Z,11.50
2022-12-08T08:30:32.704Z,10.80
2022-12-08T08:31:32.732Z,11.30
2022-12-08T08:32:33.683Z,11.30
2022-12-08T08:33:32.682Z,11.70
2022-12-08T08:34:32.724Z,12.70
2022-12-08T08:35:32.667Z,11.80
2022-12-08T08:36:32.657Z,11.00
2022-12-08T08:37:32.653Z,11.60
2022-12-08T08:38:32.660Z,12.00
2022-12-08T08:39:32.669Z,11.70
2022-12-08T08:40:32.633Z,12.30
2022-12-08T08:41:32.627Z,13.90
2022-12-08T08:42:32.624Z,13.00
2022-12-08T08:43:37.876Z,14.90
2022-12-08T08:44:34.620Z,13.40
2022-12-08T08:45:32.594Z,13.60
2022-12-08T08:46:32.646Z,13.70
2022-12-08T08:47:32.597Z,14.70
2022-12-08T08:48:32.619Z,14.20
2022-12-08T08:49:32.602Z,14.20
2022-12-08T08:50:37.343Z,14.00
2022-12-08T08:51:34.546Z,14.20
2022-12-08T08:52:32.547Z,13.50
2022-12-08T08:53:32.536Z,12.10
2022-12-08T08:54:32.561Z,11.50
2022-12-08T08:55:32.535Z,12.70
2022-12-08T08:56:32.516Z,12.50
2022-12-08T08:57:32.506Z,12.60
2022-12-08T08:58:32.498Z,12.70
2022-12-08T08:59:32.547Z,13.10
2022-12-08T09:00:32.496Z,14.00
2022-12-08T09:01:32.532Z,13.90
2022-12-08T09:02:32.476Z,13.20
2022-12-08T09:03:32.464Z,12.40
2022-12-08T09:04:32.543Z,13.70
2022-12-08T09:05:32.443Z,14.00
2022-12-08T09:06:32.560Z,12.90
2022-12-08T09:07:32.432Z,12.30
2022-12-08T09:08:32.500Z,12.60
2022-12-08T09:09:32.430Z,12.90
2022-12-08T09:10:32.439Z,12.90
2022-12-08T09:11:32.423Z,12.70
2022-12-08T09:12:32.404Z,13.00
2022-12-08T09:13:32.453Z,14.10
2022-12-08T09:14:32.399Z,14.30
2022-12-08T09:15:32.530Z,15.50
2022-12-08T09:16:35.108Z,14.50
2022-12-08T09:17:33.357Z,16.30
2022-12-08T09:18:32.353Z,16.30
2022-12-08T09:19:32.355Z,18.40
2022-12-08T09:20:32.366Z,18.30
2022-12-08T09:21:32.338Z,18.50
2022-12-08T09:22:32.330Z,18.70
2022-12-08T09:23:35.531Z,17.90
2022-12-08T09:24:33.309Z,17.90
2022-12-08T09:25:32.334Z,17.60
2022-12-08T09:26:32.295Z,17.20
2022-12-08T09:27:32.300Z,15.30
2022-12-08T09:28:32.285Z,14.80
2022-12-08T09:29:35.896Z,14.00
2022-12-08T09:30:33.294Z,12.40
2022-12-08T09:31:32.279Z,12.90
2022-12-08T09:32:32.251Z,13.50
2022-12-08T09:33:32.239Z,13.40
2022-12-08T09:34:32.229Z,12.60
2022-12-08T09:35:32.260Z,13.10
2022-12-08T09:36:32.211Z,13.20
2022-12-08T09:37:32.204Z,13.30
2022-12-08T09:38:32.215Z,12.90
2022-12-08T09:39:32.201Z,12.20
2022-12-08T09:40:32.232Z,12.10
2022-12-08T09:41:37.604Z,12.70
2022-12-08T09:42:34.172Z,13.00
2022-12-08T09:43:32.167Z,12.20
2022-12-08T09:44:32.158Z,13.40
2022-12-08T09:45:32.181Z,12.60
2022-12-08T09:46:32.234Z,12.20
2022-12-08T09:47:35.705Z,12.10
2022-12-08T09:48:33.136Z,12.60
2022-12-08T09:49:32.127Z,12.30
2022-12-08T09:50:32.147Z,12.40
2022-12-08T09:51:32.104Z,12.90
2022-12-08T09:52:32.091Z,11.90
2022-12-08T09:53:35.682Z,12.20
2022-12-08T09:54:33.397Z,12.50
2022-12-08T09:55:32.064Z,11.30
2022-12-08T09:56:32.091Z,12.50
2022-12-08T09:57:32.135Z,12.30
2022-12-08T09:58:32.049Z,13.60
2022-12-08T09:59:32.046Z,12.00
2022-12-08T10:00:32.037Z,12.50
2022-12-08T10:01:32.129Z,13.20
2022-12-08T10:02:32.022Z,13.70
2022-12-08T10:03:32.014Z,13.30
2022-12-08T10:04:32.076Z,13.10
2022-12-08T10:05:32.021Z,12.50
2022-12-08T10:06:32.009Z,12.30
2022-12-08T10:07:32.001Z,13.10
2022-12-08T10:08:32.080Z,12.00
2022-12-08T10:09:31.970Z,12.40
2022-12-08T10:10:31.959Z,12.30
2022-12-08T10:11:31.977Z,12.50
2022-12-08T10:12:31.947Z,12.70
2022-12-08T10:13:31.943Z,13.00
2022-12-08T10:14:31.945Z,12.90
2022-12-08T10:15:31.921Z,13.20
2022-12-08T10:16:31.981Z,12.80
2022-12-08T10:17:31.931Z,12.50
2022-12-08T10:18:31.906Z,10.90
2022-12-08T10:19:31.885Z,11.90
2022-12-08T10:20:31.889Z,13.20
2022-12-08T10:21:31.905Z,12.90
2022-12-08T10:22:31.872Z,12.80
2022-12-08T10:23:31.867Z,12.40
2022-12-08T10:24:31.851Z,11.90
2022-12-08T10:25:31.840Z,11.80
2022-12-08T10:26:31.939Z,11.80
2022-12-08T10:27:31.833Z,12.20
2022-12-08T10:28:31.872Z,11.40
2022-12-08T10:29:31.851Z,11.50
2022-12-08T10:30:31.807Z,12.40
2022-12-08T10:31:31.870Z,12.60
2022-12-08T10:32:31.819Z,12.50
2022-12-08T10:33:31.868Z,12.10
2022-12-08T10:34:31.794Z,11.70
2022-12-08T10:35:31.766Z,12.10
2022-12-08T10:36:31.753Z,12.50
2022-12-08T10:37:32.830Z,11.90
2022-12-08T10:38:31.757Z,12.40
2022-12-08T10:39:31.751Z,12.10
2022-12-08T10:40:31.733Z,10.90
2022-12-08T10:41:31.731Z,11.20
2022-12-08T10:42:31.756Z,11.70
2022-12-08T10:43:31.708Z,9.90
2022-12-08T10:44:31.701Z,12.00
2022-12-08T10:45:31.700Z,11.60
2022-12-08T10:46:31.905Z,11.30
2022-12-08T10:47:31.775Z,11.10
2022-12-08T10:48:31.672Z,10.60
2022-12-08T10:49:31.676Z,10.80
2022-12-08T10:50:31.655Z,11.50
2022-12-08T10:51:31.643Z,11.20
2022-12-08T10:52:31.672Z,11.70
2022-12-08T10:53:31.639Z,14.40
2022-12-08T10:54:31.628Z,12.40
2022-12-08T10:55:31.618Z,11.80
2022-12-08T10:56:31.621Z,11.90
2022-12-08T10:57:31.626Z,11.00
2022-12-08T10:58:31.589Z,10.30
2022-12-08T10:59:31.589Z,10.80
2022-12-08T11:00:31.714Z,10.60
2022-12-08T11:01:31.657Z,10.50
2022-12-08T11:02:31.650Z,10.40
2022-12-08T11:03:31.555Z,10.50
2022-12-08T11:04:31.541Z,9.50
2022-12-08T11:05:31.532Z,9.80
2022-12-08T11:06:31.535Z,10.30
2022-12-08T11:07:31.549Z,10.30
2022-12-08T11:08:31.634Z,10.00
2022-12-08T11:09:31.507Z,10.00
2022-12-08T11:10:31.546Z,11.00
2022-12-08T11:11:31.496Z,11.00
2022-12-08T11:12:31.496Z,12.50
2022-12-08T11:13:32.502Z,10.20
2022-12-08T11:14:31.464Z,10.80
2022-12-08T11:15:32.477Z,9.40
2022-12-08T11:16:31.548Z,9.30
2022-12-08T11:17:31.440Z,9.70
2022-12-08T11:18:31.471Z,9.70
2022-12-08T11:19:31.426Z,10.40
2022-12-08T11:20:31.419Z,11.40
2022-12-08T11:21:31.409Z,10.80
2022-12-08T11:22:31.409Z,11.40
2022-12-08T11:23:31.426Z,12.00
2022-12-08T11:24:37.236Z,11.60
2022-12-08T11:25:33.390Z,11.30
2022-12-08T11:26:31.385Z,10.80
2022-12-08T11:27:31.368Z,10.60
2022-12-08T11:28:31.388Z,10.40
2022-12-08T11:29:31.358Z,10.80
2022-12-08T11:30:31.340Z,11.20
2022-12-08T11:31:31.388Z,10.50
2022-12-08T11:32:31.334Z,11.00
2022-12-08T11:33:31.355Z,11.10
2022-12-08T11:34:31.312Z,11.90
2022-12-08T11:35:32.307Z,11.20
2022-12-08T11:36:31.309Z,9.90
2022-12-08T11:37:34.691Z,10.20
2022-12-08T11:38:32.320Z,8.00
2022-12-08T11:39:31.285Z,8.90
2022-12-08T11:40:31.271Z,9.50
2022-12-08T11:41:31.260Z,11.20
2022-12-08T11:42:31.251Z,10.20
2022-12-08T11:43:31.286Z,11.70
2022-12-08T11:44:31.264Z,11.00
2022-12-08T11:45:31.305Z,10.70
2022-12-08T11:46:31.309Z,10.20
2022-12-08T11:47:31.218Z,10.30
2022-12-08T11:48:31.209Z,11.90
2022-12-08T11:49:31.230Z,9.90
2022-12-08T11:50:31.193Z,12.30
2022-12-08T11:51:31.188Z,13.50
2022-12-08T11:52:31.405Z,13.60
2022-12-08T11:53:31.170Z,12.60
2022-12-08T11:54:31.190Z,10.70
2022-12-08T11:55:35.286Z,11.40
2022-12-08T11:56:33.145Z,11.50
2022-12-08T11:57:31.243Z,12.30
2022-12-08T11:58:31.142Z,13.80
2022-12-08T11:59:31.157Z,11.80
2022-12-08T12:00:31.111Z,13.20
2022-12-08T12:01:31.106Z,11.30
2022-12-08T12:02:31.233Z,10.40
2022-12-08T12:03:31.201Z,13.80
2022-12-08T12:04:31.115Z,11.90
2022-12-08T12:06:05.264Z,10.70
2022-12-08T12:07:02.489Z,11.60
2022-12-08T12:07:33.067Z,11.20
2022-12-08T12:08:31.126Z,14.20
2022-12-08T12:09:31.072Z,15.40
2022-12-08T12:10:31.059Z,13.00
2022-12-08T12:11:31.028Z,12.20
2022-12-08T12:12:36.301Z,10.80
2022-12-08T12:13:33.020Z,10.50
2022-12-08T12:14:31.035Z,11.10
2022-12-08T12:15:31.004Z,12.20
2022-12-08T12:16:31.057Z,10.90
2022-12-08T12:17:30.988Z,10.70
2022-12-08T12:18:30.983Z,10.40
2022-12-08T12:19:31.015Z,13.30
2022-12-08T12:20:30.968Z,12.50
2022-12-08T12:21:30.960Z,13.50
2022-12-08T12:22:30.957Z,13.10
2022-12-08T12:23:30.951Z,11.40
2022-12-08T12:24:35.581Z,11.00
2022-12-08T12:25:32.922Z,10.10
2022-12-08T12:26:30.938Z,10.90
2022-12-08T12:27:30.933Z,10.40
2022-12-08T12:28:30.907Z,10.10
2022-12-08T12:29:30.899Z,19.20
2022-12-08T12:30:30.997Z,19.50
2022-12-08T12:31:30.882Z,26.70
2022-12-08T12:32:30.876Z,38.50
2022-12-08T12:33:30.879Z,23.70
2022-12-08T12:34:30.870Z,40.00
2022-12-08T12:35:30.885Z,32.70
2022-12-08T12:36:30.846Z,24.70
2022-12-08T12:37:30.849Z,18.80
2022-12-08T12:38:30.836Z,17.70
2022-12-08T12:39:30.844Z,19.00
2022-12-08T12:40:30.846Z,15.20
2022-12-08T12:41:30.816Z,12.30
2022-12-08T12:42:30.803Z,11.00
2022-12-08T12:43:30.794Z,10.10
2022-12-08T12:44:30.795Z,11.70
2022-12-08T12:46:02.751Z,11.80
2022-12-08T12:46:30.842Z,10.30
2022-12-08T12:47:30.763Z,10.20
2022-12-08T12:48:30.767Z,10.00
2022-12-08T12:49:30.767Z,9.40
2022-12-08T12:50:30.796Z,9.60
2022-12-08T12:51:30.734Z,9.00
2022-12-08T12:52:30.742Z,11.40
2022-12-08T12:53:30.733Z,12.50
2022-12-08T12:54:30.712Z,10.00
2022-12-08T12:55:30.751Z,9.80
2022-12-08T12:56:30.715Z,10.20